createdAt,value
2022-08-22T00:01:19.850Z,0.40
2022-08-22T00:02:54.995Z,0.50
2022-08-22T00:03:04.983Z,1.30
2022-08-22T00:03:12.644Z,0.30
2022-08-22T00:04:02.202Z,0.68
2022-08-22T00:06:44.425Z,0.47
2022-08-22T00:09:20.025Z,0.40
2022-08-22T00:12:06.737Z,0.60
2022-08-22T00:14:36.691Z,0.43
2022-08-22T00:17:23.449Z,0.73
2022-08-22T00:19:54.904Z,0.35
2022-08-22T00:22:26.203Z,0.40
2022-08-22T00:24:58.207Z,0.73
2022-08-22T00:29:54.421Z,0.63
2022-08-22T00:32:26.331Z,0.52
2022-08-22T00:34:55.977Z,0.30
2022-08-22T00:37:26.165Z,0.32
2022-08-22T00:40:03.374Z,0.35
2022-08-22T00:42:32.160Z,0.60
2022-08-22T00:45:02.042Z,0.30
2022-08-22T00:47:31.540Z,0.95
2022-08-22T00:50:07.808Z,0.50
2022-08-22T00:52:53.707Z,0.47
2022-08-22T00:55:35.161Z,0.35
2022-08-22T00:58:11.112Z,0.20
2022-08-22T01:00:46.497Z,0.30
2022-08-22T01:03:22.642Z,0.43
2022-08-22T01:06:05.035Z,0.20
2022-08-22T01:08:36.907Z,0.50
2022-08-22T01:11:09.602Z,1.08
2022-08-22T01:13:36.067Z,0.30
2022-08-22T01:16:26.360Z,0.60
2022-08-22T01:19:15.946Z,0.43
2022-08-22T01:21:48.713Z,0.20
2022-08-22T01:25:04.213Z,0.30
2022-08-22T01:27:43.176Z,0.30
2022-08-22T01:30:18.210Z,0.30
2022-08-22T01:32:50.596Z,0.20
2022-08-22T01:35:45.550Z,0.30
2022-08-22T01:38:23.364Z,0.17
2022-08-22T01:41:14.602Z,0.17
2022-08-22T01:44:03.457Z,0.28
2022-08-22T01:46:37.132Z,0.30
2022-08-22T01:49:08.016Z,0.50
2022-08-22T01:51:46.663Z,0.25
2022-08-22T01:54:31.436Z,0.40
2022-08-22T01:57:02.291Z,0.20
2022-08-22T01:59:34.509Z,0.47
2022-08-22T02:02:03.957Z,0.25
2022-08-22T02:04:39.277Z,0.20
2022-08-22T02:07:05.702Z,0.40
2022-08-22T02:09:50.684Z,0.32
2022-08-22T02:12:25.084Z,0.55
2022-08-22T02:15:10.280Z,0.47
2022-08-22T02:17:50.755Z,0.20
2022-08-22T02:20:20.690Z,0.35
2022-08-22T02:22:49.883Z,0.30
2022-08-22T02:25:39.935Z,0.28
2022-08-22T02:28:12.459Z,0.40
2022-08-22T02:30:50.725Z,0.15
2022-08-22T02:33:34.445Z,0.10
2022-08-22T02:36:07.541Z,0.20
2022-08-22T02:38:38.887Z,0.20
2022-08-22T02:41:21.003Z,0.85
2022-08-22T02:46:22.905Z,0.20
2022-08-22T02:48:55.992Z,0.13
2022-08-22T02:51:25.597Z,0.20
2022-08-22T02:54:18.188Z,0.22
2022-08-22T02:56:46.419Z,0.20
2022-08-22T02:59:22.078Z,0.43
2022-08-22T03:01:48.755Z,0.30
2022-08-22T03:04:21.663Z,0.50
2022-08-22T03:07:03.440Z,0.35
2022-08-22T03:09:32.515Z,0.20
2022-08-22T03:12:11.467Z,0.57
2022-08-22T03:14:53.114Z,0.30
2022-08-22T03:17:24.335Z,0.20
2022-08-22T03:20:00.521Z,0.20
2022-08-22T03:22:43.690Z,0.20
2022-08-22T03:25:30.040Z,0.30
2022-08-22T03:28:00.362Z,0.20
2022-08-22T03:30:54.067Z,0.10
2022-08-22T03:33:22.599Z,0.30
2022-08-22T03:35:49.920Z,0.35
2022-08-22T03:38:40.460Z,0.32
2022-08-22T03:41:12.810Z,0.77
2022-08-22T03:43:49.584Z,0.57
2022-08-22T03:46:46.243Z,0.40
2022-08-22T03:49:12.684Z,0.60
2022-08-22T03:51:57.456Z,0.40
2022-08-22T03:54:34.900Z,0.10
2022-08-22T03:57:06.198Z,0.35
2022-08-22T03:59:55.767Z,0.20
2022-08-22T04:02:47.284Z,0.40
2022-08-22T04:05:15.319Z,0.38
2022-08-22T04:08:01.588Z,0.30
2022-08-22T04:10:31.804Z,0.50
2022-08-22T04:13:16.900Z,0.38
2022-08-22T04:16:02.535Z,0.32
2022-08-22T04:18:42.779Z,0.38
2022-08-22T04:21:15.359Z,0.40
2022-08-22T04:24:00.196Z,0.28
2022-08-22T04:26:37.421Z,0.20
2022-08-22T04:29:09.243Z,0.15
2022-08-22T04:31:46.282Z,0.30
2022-08-22T04:34:12.782Z,0.40
2022-08-22T04:36:54.527Z,0.20
2022-08-22T04:39:30.050Z,0.68
2022-08-22T04:42:29.037Z,1.00
2022-08-22T04:45:02.251Z,0.10
2022-08-22T04:47:40.466Z,0.43
2022-08-22T04:50:15.994Z,0.20
2022-08-22T04:52:52.163Z,0.25
2022-08-22T04:55:25.970Z,0.43
2022-08-22T04:58:01.811Z,0.80
2022-08-22T05:00:39.789Z,0.40
2022-08-22T05:03:11.079Z,0.90
2022-08-22T05:05:39.118Z,0.80
2022-08-22T05:08:06.932Z,0.47
2022-08-22T05:10:36.463Z,0.20
2022-08-22T05:13:06.357Z,0.20
2022-08-22T05:15:37.642Z,0.47
2022-08-22T05:18:16.449Z,0.17
2022-08-22T05:20:46.100Z,0.52
2022-08-22T05:23:21.175Z,0.50
2022-08-22T05:25:49.915Z,0.52
2022-08-22T05:28:27.129Z,0.30
2022-08-22T05:30:53.791Z,0.22
2022-08-22T05:33:23.411Z,0.45
2022-08-22T05:35:57.963Z,0.68
2022-08-22T05:38:28.926Z,0.40
2022-08-22T05:40:59.461Z,0.50
2022-08-22T05:43:26.674Z,0.45
2022-08-22T05:45:55.578Z,0.52
2022-08-22T05:48:25.446Z,0.55
2022-08-22T05:50:55.876Z,0.50
2022-08-22T05:53:29.369Z,0.38
2022-08-22T05:55:55.809Z,1.23
2022-08-22T05:58:36.679Z,0.30
2022-08-22T06:01:21.895Z,0.38
2022-08-22T06:04:01.362Z,0.70
2022-08-22T06:06:29.975Z,0.38
2022-08-22T06:09:22.570Z,1.58
2022-08-22T06:11:53.573Z,0.30
2022-08-22T06:14:40.705Z,0.13
2022-08-22T06:17:11.010Z,0.40
2022-08-22T06:19:40.383Z,0.47
2022-08-22T06:22:07.365Z,0.17
2022-08-22T06:24:36.602Z,0.32
2022-08-22T06:27:08.662Z,0.60
2022-08-22T06:32:03.570Z,0.50
2022-08-22T06:34:34.966Z,1.08
2022-08-22T06:37:03.776Z,0.38
2022-08-22T06:39:35.149Z,0.65
2022-08-22T06:42:04.831Z,0.70
2022-08-22T06:44:34.453Z,0.57
2022-08-22T06:47:03.414Z,0.30
2022-08-22T06:49:30.691Z,0.60
2022-08-22T06:52:02.160Z,0.50
2022-08-22T06:54:35.889Z,0.40
2022-08-22T06:57:03.558Z,0.25
2022-08-22T06:59:31.567Z,0.60
2022-08-22T07:01:57.998Z,0.10
2022-08-22T07:04:26.710Z,0.60
2022-08-22T07:06:54.910Z,0.38
2022-08-22T07:09:24.439Z,1.63
2022-08-22T07:11:51.602Z,0.32
2022-08-22T07:14:24.410Z,0.60
2022-08-22T07:16:58.868Z,0.10
2022-08-22T07:19:33.143Z,0.20
2022-08-22T07:22:00.890Z,0.50
2022-08-22T07:24:28.866Z,0.30
2022-08-22T07:26:58.114Z,0.20
2022-08-22T07:29:28.307Z,1.15
2022-08-22T07:32:01.658Z,0.40
2022-08-22T07:34:37.654Z,0.30
2022-08-22T07:37:06.818Z,0.20
2022-08-22T07:39:37.158Z,0.50
2022-08-22T07:42:11.495Z,0.20
2022-08-22T07:45:07.272Z,0.35
2022-08-22T07:47:36.437Z,0.68
2022-08-22T07:50:07.775Z,0.35
2022-08-22T07:52:40.549Z,1.25
2022-08-22T07:55:15.472Z,0.30
2022-08-22T07:57:44.564Z,1.08
2022-08-22T08:00:18.906Z,0.28
2022-08-22T08:02:47.867Z,0.20
2022-08-22T08:05:14.459Z,0.17
2022-08-22T08:07:43.710Z,0.30
2022-08-22T08:10:13.204Z,0.10
2022-08-22T08:12:56.113Z,0.20
2022-08-22T08:15:30.077Z,0.20
2022-08-22T08:18:02.283Z,1.25
2022-08-22T08:20:30.190Z,0.20
2022-08-22T08:22:57.689Z,0.10
2022-08-22T08:25:26.639Z,0.20
2022-08-22T08:28:12.009Z,0.10
2022-08-22T08:30:54.679Z,0.17
2022-08-22T08:33:26.262Z,0.45
2022-08-22T08:38:31.529Z,0.10
2022-08-22T08:41:10.077Z,0.10
2022-08-22T08:43:56.841Z,0.20
2022-08-22T08:46:25.510Z,0.30
2022-08-22T08:49:15.995Z,0.13
2022-08-22T08:51:48.684Z,0.30
2022-08-22T08:54:36.457Z,0.35
2022-08-22T08:57:06.226Z,0.17
2022-08-22T08:59:35.563Z,0.10
2022-08-22T09:02:20.565Z,0.20
2022-08-22T09:05:08.578Z,0.32
2022-08-22T09:07:36.135Z,0.20
2022-08-22T09:10:22.443Z,0.30
2022-08-22T09:13:16.283Z,0.10
2022-08-22T09:16:04.306Z,0.30
2022-08-22T09:18:40.850Z,0.30
2022-08-22T09:21:30.424Z,0.20
2022-08-22T09:23:57.409Z,0.17
2022-08-22T09:26:35.860Z,0.22
2022-08-22T09:29:13.588Z,0.10
2022-08-22T09:31:53.281Z,0.17
2022-08-22T09:34:29.791Z,0.38
2022-08-22T09:37:16.437Z,0.20
2022-08-22T09:39:54.217Z,0.32
2022-08-22T09:42:29.892Z,0.30
2022-08-22T09:45:11.833Z,0.40
2022-08-22T09:47:44.405Z,0.30
2022-08-22T09:50:22.132Z,0.43
2022-08-22T09:52:48.632Z,0.30
2022-08-22T09:55:32.107Z,0.65
2022-08-22T09:58:05.826Z,0.30
2022-08-22T10:00:47.279Z,0.50
2022-08-22T10:03:27.899Z,0.60
2022-08-22T10:05:59.386Z,0.63
2022-08-22T10:08:46.089Z,0.40
2022-08-22T10:11:26.875Z,0.60
2022-08-22T10:14:00.812Z,0.40
2022-08-22T10:16:45.748Z,0.30
2022-08-22T10:19:18.409Z,0.38
2022-08-22T10:21:49.172Z,0.50
2022-08-22T10:24:25.689Z,0.20
2022-08-22T10:27:03.896Z,0.40
2022-08-22T10:29:34.909Z,0.30
2022-08-22T10:32:14.447Z,0.77
2022-08-22T10:34:44.408Z,0.88
2022-08-22T10:37:30.863Z,0.60
2022-08-22T10:40:02.597Z,0.60
2022-08-22T10:42:35.347Z,0.57
2022-08-22T10:45:23.555Z,0.52
2022-08-22T10:47:58.573Z,0.60
2022-08-22T10:50:31.829Z,0.55
2022-08-22T10:53:28.987Z,0.60
2022-08-22T10:56:14.951Z,0.57
2022-08-22T10:58:56.074Z,0.40
2022-08-22T11:01:38.075Z,0.85
2022-08-22T11:04:16.958Z,1.45
2022-08-22T11:06:44.829Z,1.13
2022-08-22T11:09:18.198Z,0.55
2022-08-22T11:11:51.447Z,0.70
2022-08-22T11:14:18.626Z,0.73
2022-08-22T11:16:48.216Z,0.70
2022-08-22T11:19:27.601Z,0.85
2022-08-22T11:21:58.968Z,0.60
2022-08-22T11:24:35.640Z,0.60
2022-08-22T11:27:25.421Z,0.70
2022-08-22T11:30:18.750Z,0.90
2022-08-22T11:33:04.331Z,0.77
2022-08-22T11:35:50.610Z,0.85
2022-08-22T11:38:36.241Z,0.70
2022-08-22T11:41:23.004Z,1.10
2022-08-22T11:44:08.236Z,0.90
2022-08-22T11:46:36.748Z,0.80
2022-08-22T11:49:10.801Z,0.70
2022-08-22T11:51:46.503Z,1.02
2022-08-22T11:54:31.110Z,1.10
2022-08-22T11:57:06.613Z,0.80
2022-08-22T11:59:58.240Z,0.90
2022-08-22T12:02:44.928Z,1.20
2022-08-22T12:05:26.142Z,0.70
2022-08-22T12:07:56.501Z,1.23
2022-08-22T12:10:29.777Z,0.88
2022-08-22T12:13:01.455Z,0.82
2022-08-22T12:15:33.496Z,1.00
2022-08-22T12:20:46.944Z,1.00
2022-08-22T12:23:16.963Z,0.93
2022-08-22T12:26:10.751Z,1.00
2022-08-22T12:28:56.312Z,1.00
2022-08-22T12:31:26.144Z,1.10
2022-08-22T12:34:11.102Z,0.95
2022-08-22T12:36:52.112Z,1.15
2022-08-22T12:39:18.534Z,0.80
2022-08-22T12:42:05.033Z,1.00
2022-08-22T12:44:57.984Z,1.20
2022-08-22T12:47:42.138Z,1.10
2022-08-22T12:50:27.394Z,1.00
2022-08-22T12:53:00.591Z,1.10
2022-08-22T12:55:33.865Z,1.10
2022-08-22T12:58:18.915Z,1.38
2022-08-22T13:00:47.438Z,1.30
2022-08-22T13:03:25.018Z,1.38
2022-08-22T13:05:59.840Z,1.20
2022-08-22T13:08:37.046Z,1.00
2022-08-22T13:11:22.451Z,1.40
2022-08-22T13:13:56.005Z,1.80
2022-08-22T13:16:24.062Z,1.20
2022-08-22T13:18:54.832Z,1.38
2022-08-22T13:21:34.607Z,1.15
2022-08-22T13:24:10.642Z,0.95
2022-08-22T13:26:45.229Z,2.10
2022-08-22T13:29:26.488Z,1.40
2022-08-22T13:31:56.219Z,1.05
2022-08-22T13:34:43.539Z,1.30
2022-08-22T13:37:17.889Z,1.20
2022-08-22T13:39:48.901Z,1.30
2022-08-22T13:42:30.580Z,1.35
2022-08-22T13:44:59.555Z,1.48
2022-08-22T13:47:31.778Z,1.27
2022-08-22T13:50:14.822Z,1.77
2022-08-22T13:52:58.854Z,1.42
2022-08-22T13:55:32.620Z,1.42
2022-08-22T13:58:02.572Z,1.33
2022-08-22T14:00:56.635Z,1.73
2022-08-22T14:03:27.640Z,1.50
2022-08-22T14:05:58.999Z,1.33
2022-08-22T14:08:45.793Z,1.40
2022-08-22T14:11:16.890Z,1.92
2022-08-22T14:13:43.436Z,1.80
2022-08-22T14:16:19.246Z,1.35
2022-08-22T14:18:56.433Z,1.95
2022-08-22T14:21:42.376Z,1.55
2022-08-22T14:24:15.828Z,1.75
2022-08-22T14:27:05.606Z,1.67
2022-08-22T14:29:41.354Z,1.63
2022-08-22T14:32:32.248Z,1.45
2022-08-22T14:35:04.996Z,2.17
2022-08-22T14:37:40.206Z,1.83
2022-08-22T14:40:36.299Z,1.60
2022-08-22T14:43:07.971Z,2.75
2022-08-22T14:45:36.896Z,1.52
2022-08-22T14:48:31.049Z,1.67
2022-08-22T14:51:01.043Z,1.70
2022-08-22T14:53:32.103Z,1.70
2022-08-22T14:56:01.343Z,1.75
2022-08-22T14:58:28.891Z,1.70
2022-08-22T15:00:56.473Z,1.70
2022-08-22T15:03:25.619Z,2.65
2022-08-22T15:06:01.474Z,2.10
2022-08-22T15:08:27.929Z,1.75
2022-08-22T15:11:13.466Z,1.92
2022-08-22T15:13:51.291Z,2.95
2022-08-22T15:16:29.232Z,2.03
2022-08-22T15:18:55.739Z,2.20
2022-08-22T15:21:28.059Z,2.03
2022-08-22T15:23:56.318Z,2.95
2022-08-22T15:26:28.205Z,1.90
2022-08-22T15:29:07.310Z,1.70
2022-08-22T15:31:34.451Z,2.03
2022-08-22T15:34:09.680Z,2.00
2022-08-22T15:36:36.113Z,2.28
2022-08-22T15:39:21.227Z,1.98
2022-08-22T15:41:48.689Z,2.53
2022-08-22T15:44:32.492Z,2.30
2022-08-22T15:47:24.124Z,1.70
2022-08-22T15:49:58.343Z,2.00
2022-08-22T15:52:37.649Z,2.30
2022-08-22T15:55:16.408Z,1.80
2022-08-22T15:57:57.740Z,2.10
2022-08-22T16:00:29.444Z,2.20
2022-08-22T16:03:02.170Z,3.47
2022-08-22T16:05:35.116Z,1.92
2022-08-22T16:08:04.768Z,2.33
2022-08-22T16:11:03.790Z,2.13
2022-08-22T16:13:30.290Z,1.98
2022-08-22T16:16:07.033Z,2.63
2022-08-22T16:18:33.508Z,2.05
2022-08-22T16:21:03.058Z,2.08
2022-08-22T16:23:49.724Z,2.38
2022-08-22T16:26:16.597Z,1.95
2022-08-22T16:29:03.843Z,1.60
2022-08-22T16:31:32.679Z,2.15
2022-08-22T16:34:19.173Z,1.90
2022-08-22T16:36:48.886Z,1.60
2022-08-22T16:39:21.428Z,2.67
2022-08-22T16:42:07.968Z,2.00
2022-08-22T16:44:37.499Z,1.75
2022-08-22T16:47:27.323Z,2.42
2022-08-22T16:49:55.788Z,2.42
2022-08-22T16:52:25.398Z,1.95
2022-08-22T16:54:59.945Z,2.70
2022-08-22T16:57:29.449Z,2.38
2022-08-22T17:00:03.426Z,2.35
2022-08-22T17:02:33.409Z,2.50
2022-08-22T17:05:17.954Z,2.55
2022-08-22T17:07:50.826Z,3.05
2022-08-22T17:10:17.512Z,2.40
2022-08-22T17:13:00.916Z,2.20
2022-08-22T17:15:34.314Z,2.08
2022-08-22T17:18:19.686Z,2.60
2022-08-22T17:20:48.960Z,2.80
2022-08-22T17:23:23.862Z,2.25
2022-08-22T17:25:50.316Z,2.10
2022-08-22T17:28:24.724Z,2.10
2022-08-22T17:31:10.024Z,2.40
2022-08-22T17:33:52.231Z,2.70
2022-08-22T17:36:26.528Z,1.95
2022-08-22T17:38:53.860Z,2.05
2022-08-22T17:41:39.033Z,2.30
2022-08-22T17:44:23.764Z,2.83
2022-08-22T17:46:55.493Z,2.88
2022-08-22T17:49:40.570Z,2.70
2022-08-22T17:52:22.883Z,2.33
2022-08-22T17:54:52.361Z,2.20
2022-08-22T17:57:24.669Z,2.20
2022-08-22T17:59:54.491Z,3.55
2022-08-22T18:02:20.929Z,2.15
2022-08-22T18:04:56.721Z,2.97
2022-08-22T18:07:26.016Z,2.78
2022-08-22T18:10:14.353Z,3.08
2022-08-22T18:12:53.105Z,2.47
2022-08-22T18:15:30.944Z,2.65
2022-08-22T18:18:01.130Z,3.08
2022-08-22T18:20:33.387Z,2.33
2022-08-22T18:23:02.926Z,2.72
2022-08-22T18:25:32.253Z,2.38
2022-08-22T18:28:17.383Z,2.00
2022-08-22T18:31:09.859Z,3.20
2022-08-22T18:33:40.014Z,2.50
2022-08-22T18:36:11.302Z,2.35
2022-08-22T18:39:12.051Z,2.65
2022-08-22T18:41:43.257Z,2.65
2022-08-22T18:44:17.894Z,2.30
2022-08-22T18:46:46.083Z,2.30
2022-08-22T18:49:24.518Z,2.58
2022-08-22T18:52:13.051Z,1.92
2022-08-22T18:54:48.763Z,2.42
2022-08-22T18:57:38.672Z,2.03
2022-08-22T19:00:16.947Z,2.38
2022-08-22T19:02:51.146Z,2.78
2022-08-22T19:05:34.468Z,1.98
2022-08-22T19:08:13.504Z,2.40
2022-08-22T19:10:43.416Z,2.60
2022-08-22T19:13:31.020Z,2.40
2022-08-22T19:16:06.230Z,2.53
2022-08-22T19:18:39.273Z,1.75
2022-08-22T19:21:33.819Z,2.50
2022-08-22T19:24:01.572Z,2.00
2022-08-22T19:26:30.540Z,2.22
2022-08-22T19:29:00.040Z,1.70
2022-08-22T19:31:39.541Z,2.63
2022-08-22T19:34:18.855Z,1.80
2022-08-22T19:37:07.091Z,3.05
2022-08-22T19:39:54.486Z,1.60
2022-08-22T19:42:21.756Z,1.70
2022-08-22T19:45:22.410Z,1.60
2022-08-22T19:47:59.106Z,1.70
2022-08-22T19:50:37.298Z,2.03
2022-08-22T19:53:47.868Z,1.50
2022-08-22T19:56:35.359Z,1.42
2022-08-22T19:59:20.187Z,1.30
2022-08-22T20:02:05.011Z,1.40
2022-08-22T20:04:40.836Z,1.92
2022-08-22T20:13:27.099Z,1.27
2022-08-22T20:16:13.704Z,1.35
2022-08-22T20:21:50.425Z,1.00
2022-08-22T20:24:56.787Z,1.20
2022-08-22T20:28:08.481Z,1.25
2022-08-22T20:30:39.732Z,0.90
2022-08-22T20:33:08.430Z,1.20
2022-08-22T20:35:49.833Z,1.02
2022-08-22T20:38:18.019Z,1.10
2022-08-22T20:41:03.091Z,1.27
2022-08-22T20:43:40.813Z,1.05
2022-08-22T20:46:16.183Z,0.70
2022-08-22T20:48:44.075Z,1.05
2022-08-22T20:51:13.046Z,0.90
2022-08-22T20:53:39.556Z,0.98
2022-08-22T20:56:08.133Z,1.10
2022-08-22T20:58:37.682Z,0.80
2022-08-22T21:01:05.217Z,1.00
2022-08-22T21:03:38.836Z,1.98
2022-08-22T21:06:09.824Z,0.70
2022-08-22T21:08:36.313Z,0.80
2022-08-22T21:11:23.454Z,0.80
2022-08-22T21:13:50.764Z,0.73
2022-08-22T21:19:02.210Z,0.60
2022-08-22T21:21:33.633Z,1.00
2022-08-22T21:24:05.688Z,0.73
2022-08-22T21:29:34.183Z,0.80
2022-08-22T21:32:14.146Z,0.65
2022-08-22T21:34:45.288Z,0.90
2022-08-22T21:37:14.487Z,0.70
2022-08-22T21:39:45.156Z,0.70
2022-08-22T21:42:29.206Z,0.85
2022-08-22T21:44:57.273Z,0.80
2022-08-22T21:47:30.671Z,0.50
2022-08-22T21:50:13.029Z,0.95
2022-08-22T21:52:41.067Z,0.82
2022-08-22T21:55:26.465Z,0.70
2022-08-22T21:58:04.140Z,0.60
2022-08-22T22:00:48.912Z,0.82
2022-08-22T22:03:17.718Z,0.60
2022-08-22T22:05:44.480Z,0.50
2022-08-22T22:08:11.687Z,1.25
2022-08-22T22:10:42.259Z,0.70
2022-08-22T22:13:09.407Z,0.95
2022-08-22T22:15:40.453Z,1.17
2022-08-22T22:18:07.190Z,0.60
2022-08-22T22:20:33.971Z,1.00
2022-08-22T22:23:00.467Z,0.60
2022-08-22T22:25:41.389Z,0.82
2022-08-22T22:28:14.266Z,0.73
2022-08-22T22:30:41.461Z,0.70
2022-08-22T22:33:08.082Z,0.60
2022-08-22T22:35:34.671Z,0.50
2022-08-22T22:38:02.068Z,0.47
2022-08-22T22:40:28.787Z,0.98
2022-08-22T22:42:57.478Z,0.80
2022-08-22T22:45:23.996Z,0.60
2022-08-22T22:47:50.560Z,0.63
2022-08-22T22:50:17.105Z,0.70
2022-08-22T22:52:43.625Z,0.50
2022-08-22T22:55:10.115Z,0.63
2022-08-22T22:57:42.351Z,0.52
2022-08-22T23:00:10.677Z,0.50
2022-08-22T23:02:37.199Z,0.98
2022-08-22T23:05:03.782Z,0.50
2022-08-22T23:07:30.302Z,1.15
2022-08-22T23:10:01.495Z,0.50
2022-08-22T23:12:28.751Z,0.63
2022-08-22T23:14:55.322Z,0.60
2022-08-22T23:17:21.972Z,0.70
2022-08-22T23:19:50.122Z,0.57
2022-08-22T23:22:16.625Z,0.75
2022-08-22T23:24:43.276Z,0.50
2022-08-22T23:27:10.166Z,0.60
2022-08-22T23:29:38.356Z,0.50
2022-08-22T23:32:05.031Z,1.40
2022-08-22T23:34:33.381Z,0.50
2022-08-22T23:37:00.822Z,0.60
2022-08-22T23:39:28.360Z,0.80
2022-08-22T23:41:55.244Z,0.80
2022-08-22T23:44:23.916Z,0.77
2022-08-22T23:46:51.112Z,0.70
2022-08-22T23:49:18.094Z,1.10
2022-08-22T23:51:45.109Z,0.55
2022-08-22T23:54:11.971Z,1.23
2022-08-22T23:56:43.163Z,0.70
2022-08-22T23:59:11.731Z,1.00
